Time;durP1;ratioP1;P1;durP2;ratioP2;P2;SDS_P1;SDS_P2;PMS_P1;PMS_P2;Temp;Humidity;BMP_temperature;BMP_pressure;BME280_temperature;BME280_humidity;BME280_pressure;Samples;Min_cycle;Max_cycle;Signal;HPM_P1;HPM_P2
2023/11/03 00:01:28;;;;;;;7.85;1.65;;;;;;;13.14;68.21;98050.03;4947513;28;20059;-62
2023/11/03 00:03:56;;;;;;;6.63;1.52;;;;;;;13.34;69.52;98054.75;4933943;29;20047;-61
2023/11/03 00:06:24;;;;;;;8.20;1.50;;;;;;;13.22;69.42;98057.94;4933934;29;20054;-61
2023/11/03 00:08:51;;;;;;;6.13;1.58;;;;;;;12.97;70.03;98059.09;4964068;28;20062;-61
2023/11/03 00:11:20;;;;;;;7.07;1.92;;;;;;;13.18;69.14;98062.66;4931760;29;20063;-61
2023/11/03 00:13:47;;;;;;;10.02;1.70;;;;;;;13.31;69.97;98052.78;4934558;29;20062;-62
2023/11/03 00:16:14;;;;;;;7.82;1.50;;;;;;;13.22;69.05;98044.09;4933489;29;20442;-61
2023/11/03 00:18:42;;;;;;;8.35;1.50;;;;;;;13.15;68.06;98051.59;4933509;29;20051;-61
2023/11/03 00:21:09;;;;;;;8.68;1.60;;;;;;;12.99;67.87;98056.72;4948567;29;20059;-62
2023/11/03 00:23:37;;;;;;;8.10;2.35;;;;;;;12.75;70.12;98051.94;4931875;29;20455;-62
2023/11/03 00:26:09;;;;;;;7.00;1.40;;;;;;;13.23;69.63;98059.50;4965218;28;20447;-61
2023/11/03 00:28:40;;;;;;;7.75;2.03;;;;;;;13.27;69.32;98060.28;4964137;28;20051;-62
2023/11/03 00:31:08;;;;;;;;;;;;;;;13.30;69.74;98067.03;4933261;29;20056;-61
2023/11/03 00:33:35;;;;;;;9.15;1.77;;;;;;;12.97;70.32;98064.59;4933632;29;19922;-60
2023/11/03 00:36:03;;;;;;;7.20;1.75;;;;;;;12.95;69.62;98076.06;4964416;28;20048;-61
2023/11/03 00:38:32;;;;;;;7.38;1.55;;;;;;;13.11;70.39;98067.41;4964490;28;20070;-61
2023/11/03 00:40:59;;;;;;;6.05;1.40;;;;;;;12.94;69.95;98068.13;4932643;29;20048;-61
2023/11/03 00:43:26;;;;;;;8.90;1.70;;;;;;;12.73;69.15;98071.66;4946717;29;20055;-62
2023/11/03 00:45:53;;;;;;;9.95;2.15;;;;;;;12.87;71.04;98068.91;4934116;29;20496;-62
2023/11/03 00:48:22;;;;;;;4.43;1.35;;;;;;;12.68;69.71;98076.78;4932970;29;20055;-62
2023/11/03 00:50:50;;;;;;;8.05;1.65;;;;;;;12.78;71.78;98087.06;4933282;29;20047;-62
2023/11/03 00:53:17;;;;;;;7.55;1.58;;;;;;;12.84;71.21;98080.75;4933710;29;20043;-62
2023/11/03 00:55:44;;;;;;;7.53;1.60;;;;;;;12.51;70.52;98080.28;4948612;29;20070;-61
2023/11/03 00:58:11;;;;;;;7.13;1.40;;;;;;;12.61;72.25;98104.38;4933360;29;20054;-62
2023/11/03 01:00:41;;;;;;;8.45;1.15;;;;;;;12.63;70.34;98089.00;4933587;29;20125;-61
2023/11/03 01:03:09;;;;;;;7.82;2.08;;;;;;;12.76;71.78;98090.19;4948350;29;20497;-62
2023/11/03 01:05:36;;;;;;;5.70;1.30;;;;;;;12.70;71.14;98096.50;4934151;29;20048;-61
2023/11/03 01:08:03;;;;;;;8.10;1.88;;;;;;;12.81;71.78;98092.59;4964325;28;20055;-60
2023/11/03 01:10:32;;;;;;;6.18;1.40;;;;;;;12.87;69.73;98091.03;4963974;28;20052;-63
2023/11/03 01:13:01;;;;;;;5.80;1.38;;;;;;;12.69;70.97;98094.94;4932125;29;20070;-62
2023/11/03 01:15:29;;;;;;;5.47;1.20;;;;;;;12.81;69.77;98091.81;4967059;28;20064;-62
2023/11/03 01:17:56;;;;;;;3.88;1.15;;;;;;;13.00;71.35;98089.47;4939471;29;20055;-62
2023/11/03 01:20:27;;;;;;;8.70;1.60;;;;;;;12.88;70.39;98098.16;4951084;29;20052;-61
2023/11/03 01:23:02;;;;;;;6.47;1.40;;;;;;;12.57;69.83;98100.81;4936782;29;20132;-61
2023/11/03 01:25:35;;;;;;;;;;;;;;;12.48;72.64;98106.72;4937801;28;20068;-62
2023/11/03 01:28:02;;;;;;;6.28;1.42;;;;;;;12.47;70.82;98105.13;4937052;29;20393;-61
2023/11/03 01:30:30;;;;;;;6.10;1.13;;;;;;;12.80;70.87;98090.22;4928954;29;20486;-60
2023/11/03 01:32:57;;;;;;;10.73;1.38;;;;;;;12.39;72.62;98106.28;4951581;28;20522;-61
2023/11/03 01:35:24;;;;;;;6.72;1.35;;;;;;;12.67;71.41;98091.78;4952008;29;20134;-61
2023/11/03 01:37:53;;;;;;;5.78;1.05;;;;;;;12.62;71.19;98104.00;4951850;29;20055;-62
2023/11/03 01:40:20;;;;;;;6.13;1.33;;;;;;;12.85;72.66;98106.44;4967332;28;20052;-61
2023/11/03 01:42:49;;;;;;;6.25;1.48;;;;;;;12.80;70.76;98098.50;4951315;29;20052;-61
2023/11/03 01:45:17;;;;;;;5.38;1.02;;;;;;;12.66;72.17;98109.53;4919140;29;20059;-62
2023/11/03 01:47:45;;;;;;;5.13;1.30;;;;;;;12.74;71.96;98113.88;4967139;28;20059;-61
2023/11/03 01:50:14;;;;;;;6.88;1.20;;;;;;;12.65;70.82;98103.22;4950364;29;20062;-63
2023/11/03 01:52:42;;;;;;;7.38;1.50;;;;;;;12.69;71.50;98117.03;4934877;29;20550;-60
2023/11/03 01:55:11;;;;;;;8.50;1.25;;;;;;;12.26;72.01;98116.06;4934402;29;20056;-62
2023/11/03 01:57:39;;;;;;;6.85;1.30;;;;;;;12.55;73.16;98120.53;4964664;28;20062;-61
2023/11/03 02:00:07;;;;;;;7.50;1.60;;;;;;;12.72;72.75;98105.19;4937720;29;20067;-61
2023/11/03 02:02:35;;;;;;;9.13;1.85;;;;;;;12.00;70.32;98114.38;4945726;29;20047;-62
2023/11/03 02:05:03;;;;;;;5.43;1.08;;;;;;;12.63;72.94;98124.91;4935612;29;20047;-62
2023/11/03 02:07:30;;;;;;;10.48;1.42;;;;;;;12.35;72.53;98116.50;4936062;29;20059;-62
2023/11/03 02:09:58;;;;;;;5.60;1.40;;;;;;;12.47;73.87;98127.19;4967140;28;20052;-61
2023/11/03 02:12:26;;;;;;;5.68;1.10;;;;;;;12.42;73.50;98122.84;4934734;29;20059;-63
2023/11/03 02:14:53;;;;;;;8.07;1.50;;;;;;;12.62;73.36;98120.56;4936881;29;20082;-61
2023/11/03 02:17:21;;;;;;;5.85;1.52;;;;;;;12.43;71.20;98118.09;4935034;29;20048;-61
2023/11/03 02:19:48;;;;;;;6.22;1.30;;;;;;;12.29;72.85;98124.38;4933291;29;20561;-62
2023/11/03 02:22:15;;;;;;;5.60;1.52;;;;;;;12.45;73.60;98119.31;4933513;29;20052;-63
2023/11/03 02:24:43;;;;;;;7.95;1.40;;;;;;;12.64;70.88;98123.72;4933343;29;20059;-62
2023/11/03 02:27:10;;;;;;;6.38;1.30;;;;;;;12.73;71.92;98124.13;4934458;29;20419;-62
2023/11/03 02:29:38;;;;;;;4.78;1.40;;;;;;;12.66;72.65;98118.59;4935374;29;20484;-61
2023/11/03 02:32:06;;;;;;;4.13;1.40;;;;;;;12.25;69.35;98108.97;4934075;29;20043;-60
2023/11/03 02:34:33;;;;;;;7.53;1.38;;;;;;;12.33;73.06;98116.09;4927879;28;20059;-61
2023/11/03 02:37:00;;;;;;;7.50;1.50;;;;;;;12.72;71.92;98106.00;4934248;29;20062;-61
2023/11/03 02:39:28;;;;;;;7.80;1.50;;;;;;;12.05;72.50;98115.97;4933971;29;20062;-61
2023/11/03 02:41:55;;;;;;;8.98;1.20;;;;;;;11.52;73.74;98112.84;4934216;29;20066;-61
2023/11/03 02:44:22;;;;;;;8.02;1.50;;;;;;;12.05;76.09;98119.50;4934140;29;20069;-61
2023/11/03 02:46:50;;;;;;;4.43;1.27;;;;;;;12.01;72.38;98109.66;4964568;28;20063;-61
2023/11/03 02:49:17;;;;;;;11.88;1.83;;;;;;;11.54;71.99;98117.97;4947864;29;20040;-61
2023/11/03 02:51:45;;;;;;;9.00;1.83;;;;;;;11.69;74.33;98128.75;4934177;29;20121;-60
2023/11/03 02:54:12;;;;;;;7.78;2.30;;;;;;;12.22;74.83;98118.03;4934288;29;20794;-61
2023/11/03 02:56:49;;;;;;;13.82;1.50;;;;;;;11.91;72.69;98118.63;4935601;29;20062;-61
2023/11/03 02:59:31;;;;;;;9.30;2.15;;;;;;;12.48;73.62;98128.00;4946929;29;20047;-60
2023/11/03 03:01:59;;;;;;;5.72;1.70;;;;;;;12.60;73.95;98130.41;4935491;29;20055;-61
2023/11/03 03:04:26;;;;;;;9.32;1.60;;;;;;;12.50;70.15;98128.41;4935400;29;20067;-61
2023/11/03 03:06:54;;;;;;;10.77;1.52;;;;;;;12.70;71.66;98135.16;4934484;29;20048;-61
2023/11/03 03:09:23;;;;;;;7.15;1.38;;;;;;;12.21;70.81;98139.31;4968441;28;20051;-61
2023/11/03 03:11:50;;;;;;;6.55;1.77;;;;;;;12.34;72.79;98137.03;4949547;29;20526;-61
2023/11/03 03:14:18;;;;;;;8.73;1.70;;;;;;;12.39;73.96;98140.22;4934935;29;20068;-62
2023/11/03 03:16:50;;;;;;;12.55;2.25;;;;;;;11.86;72.36;98141.88;4933523;29;20062;-62
2023/11/03 03:19:17;;;;;;;8.65;2.17;;;;;;;12.63;73.61;98151.72;4941228;29;20051;-61
2023/11/03 03:21:45;;;;;;;7.32;1.45;;;;;;;12.74;73.17;98147.81;4934766;29;20060;-62
2023/11/03 03:24:12;;;;;;;15.32;2.00;;;;;;;12.29;73.20;98146.44;4934911;29;20052;-61
2023/11/03 03:26:39;;;;;;;9.38;1.63;;;;;;;12.27;70.62;98146.03;4934982;29;20067;-60
2023/11/03 03:29:08;;;;;;;7.90;1.50;;;;;;;12.14;73.39;98144.00;4965364;28;20607;-61
2023/11/03 03:31:35;;;;;;;12.38;1.98;;;;;;;12.15;73.94;98151.13;4934240;29;20069;-60
2023/11/03 03:34:03;;;;;;;11.70;1.67;;;;;;;11.96;71.96;98146.66;4934991;29;20055;-60
2023/11/03 03:36:30;;;;;;;6.95;1.55;;;;;;;12.16;74.33;98147.97;4933719;29;20688;-61
2023/11/03 03:38:58;;;;;;;11.45;1.92;;;;;;;12.54;72.93;98152.09;4948080;29;20552;-60
2023/11/03 03:41:25;;;;;;;11.57;1.63;;;;;;;11.97;71.76;98155.72;4933116;29;20055;-61
2023/11/03 03:43:52;;;;;;;10.88;2.25;;;;;;;11.90;73.82;98156.47;4949186;29;20055;-61
2023/11/03 03:46:21;;;;;;;7.80;1.60;;;;;;;11.93;74.84;98152.16;4948421;29;20058;-61
2023/11/03 03:48:50;;;;;;;10.82;2.10;;;;;;;12.23;75.05;98159.03;4928084;29;20039;-61
2023/11/03 03:51:18;;;;;;;10.18;1.85;;;;;;;12.07;72.02;98149.47;4933766;29;20051;-61
2023/11/03 03:53:45;;;;;;;10.73;2.15;;;;;;;11.53;70.92;98147.50;4947974;29;20059;-60
2023/11/03 03:56:12;;;;;;;9.63;1.52;;;;;;;11.65;76.74;98150.00;4934265;29;20059;-61
2023/11/03 03:58:40;;;;;;;11.95;2.17;;;;;;;12.05;74.43;98151.81;4934480;29;20572;-62
2023/11/03 04:01:07;;;;;;;13.18;1.90;;;;;;;12.16;71.97;98152.69;4935517;29;20056;-61
2023/11/03 04:03:35;;;;;;;13.77;1.60;;;;;;;12.24;74.47;98159.81;4933347;29;20056;-61
2023/11/03 04:06:03;;;;;;;10.50;1.60;;;;;;;11.66;74.12;98159.06;4934129;29;20431;-61
2023/11/03 04:08:31;;;;;;;7.07;1.30;;;;;;;12.03;75.73;98166.00;4936691;29;20044;-61
2023/11/03 04:11:00;;;;;;;10.05;1.73;;;;;;;11.87;73.65;98167.50;4933965;29;20051;-61
2023/11/03 04:13:27;;;;;;;12.35;1.65;;;;;;;11.64;73.83;98180.66;4933680;29;20067;-61
2023/11/03 04:15:54;;;;;;;9.07;1.40;;;;;;;11.57;74.36;98181.41;4933055;29;20063;-61
2023/11/03 04:18:22;;;;;;;9.65;1.67;;;;;;;11.64;73.32;98181.50;4935939;29;20054;-62
2023/11/03 04:20:49;;;;;;;9.10;2.25;;;;;;;11.61;76.33;98175.94;4934121;29;20576;-61
2023/11/03 04:23:16;;;;;;;7.68;1.50;;;;;;;11.11;75.04;98175.47;4933631;29;20059;-61
2023/11/03 04:25:44;;;;;;;12.10;1.60;;;;;;;11.00;76.54;98176.53;4964933;28;20063;-62
2023/11/03 04:28:11;;;;;;;17.10;2.97;;;;;;;11.13;75.96;98175.88;4932969;29;20055;-61
2023/11/03 04:30:39;;;;;;;6.80;1.50;;;;;;;11.66;76.86;98175.59;4964194;28;20047;-61
2023/11/03 04:33:07;;;;;;;9.15;1.63;;;;;;;12.11;74.26;98180.66;4933996;29;20055;-60
2023/11/03 04:35:35;;;;;;;10.30;2.03;;;;;;;10.90;73.36;98186.25;4964979;28;20063;-64
2023/11/03 04:38:02;;;;;;;10.55;1.83;;;;;;;10.63;75.88;98190.28;4934069;29;20055;-64
2023/11/03 04:40:29;;;;;;;11.23;1.77;;;;;;;10.55;79.14;98183.09;4948189;29;20061;-65
2023/11/03 04:42:56;;;;;;;9.27;2.20;;;;;;;10.82;78.00;98183.81;4931746;29;20056;-65
2023/11/03 04:45:26;;;;;;;12.88;1.60;;;;;;;11.24;76.83;98182.28;4932336;29;20055;-64
2023/11/03 04:47:54;;;;;;;9.82;1.92;;;;;;;11.59;79.18;98192.06;4964224;28;20055;-64
2023/11/03 04:50:21;;;;;;;8.57;1.92;;;;;;;11.31;74.58;98179.59;4935913;29;20066;-63
2023/11/03 04:52:49;;;;;;;14.05;2.20;;;;;;;11.33;76.52;98179.22;4937425;29;20071;-63
2023/11/03 04:55:16;;;;;;;7.38;1.83;;;;;;;11.44;74.65;98184.84;4919429;29;20055;-65
2023/11/03 04:57:44;;;;;;;11.00;2.13;;;;;;;10.98;76.24;98181.63;4967622;28;20056;-64
2023/11/03 05:00:12;;;;;;;10.10;2.10;;;;;;;10.98;78.03;98187.91;4937366;29;20565;-64
2023/11/03 05:02:40;;;;;;;10.70;1.55;;;;;;;10.86;75.88;98196.44;4936378;29;20055;-64
2023/11/03 05:05:09;;;;;;;14.68;1.95;;;;;;;10.49;75.61;98194.81;4935788;29;20067;-64
2023/11/03 05:07:40;;;;;;;14.23;1.98;;;;;;;10.88;77.85;98196.84;4951596;29;20056;-64
2023/11/03 05:10:08;;;;;;;18.00;2.25;;;;;;;10.61;76.59;98202.81;4938704;29;20060;-64
2023/11/03 05:12:36;;;;;;;10.45;1.77;;;;;;;11.38;79.69;98201.69;4967703;28;20062;-64
2023/11/03 05:15:07;;;;;;;8.05;1.95;;;;;;;11.36;79.43;98197.75;4939014;29;20059;-63
2023/11/03 05:17:34;;;;;;;10.07;2.22;;;;;;;11.18;76.66;98194.03;4935913;29;20085;-64
2023/11/03 05:20:04;;;;;;;12.57;2.88;;;;;;;10.92;76.37;98210.66;4953459;28;20055;-65
2023/11/03 05:22:31;;;;;;;9.52;1.73;;;;;;;10.97;77.56;98197.34;4936476;29;20447;-65
2023/11/03 05:24:59;;;;;;;13.10;2.70;;;;;;;10.90;77.28;98200.03;4951018;29;20078;-62
2023/11/03 05:27:26;;;;;;;11.07;2.42;;;;;;;10.44;75.91;98212.44;4935741;29;20142;-62
2023/11/03 05:29:53;;;;;;;8.95;1.77;;;;;;;10.16;76.65;98212.84;4936137;29;20047;-60
2023/11/03 05:32:20;;;;;;;12.52;2.45;;;;;;;10.18;78.67;98209.72;4966576;28;20070;-61
2023/11/03 05:34:48;;;;;;;11.82;2.10;;;;;;;9.96;78.20;98216.84;4935418;29;20600;-65
2023/11/03 05:37:15;;;;;;;11.95;2.22;;;;;;;10.56;83.81;98217.72;4935640;29;20051;-61
2023/11/03 05:39:42;;;;;;;9.60;1.92;;;;;;;10.54;80.94;98211.00;4936102;29;20048;-61
2023/11/03 05:42:10;;;;;;;10.60;2.10;;;;;;;10.62;79.06;98213.47;4936811;29;20059;-61
2023/11/03 05:44:38;;;;;;;9.13;2.03;;;;;;;10.53;80.67;98215.69;4936385;29;20062;-65
2023/11/03 05:47:09;;;;;;;14.80;2.03;;;;;;;10.35;81.18;98214.69;4943863;28;20051;-61
2023/11/03 05:49:36;;;;;;;8.73;2.20;;;;;;;9.91;77.60;98214.41;4936521;29;20044;-62
2023/11/03 05:52:04;;;;;;;7.93;2.45;;;;;;;10.17;81.46;98217.19;4934433;29;20059;-65
2023/11/03 05:54:31;;;;;;;11.95;2.10;;;;;;;10.18;78.77;98215.22;4936412;29;20182;-65
2023/11/03 05:56:58;;;;;;;10.23;2.63;;;;;;;10.67;81.27;98213.13;4936190;29;20078;-64
2023/11/03 05:59:25;;;;;;;9.45;1.80;;;;;;;10.10;77.31;98219.03;4950789;28;20047;-64
2023/11/03 06:01:53;;;;;;;12.10;2.70;;;;;;;9.83;78.07;98218.19;4934979;29;20052;-64
2023/11/03 06:04:20;;;;;;;9.27;2.17;;;;;;;10.40;82.19;98224.56;4935514;29;20059;-64
2023/11/03 06:06:50;;;;;;;14.18;2.78;;;;;;;10.72;81.94;98223.81;4966037;28;20055;-64
2023/11/03 06:09:17;;;;;;;9.48;1.80;;;;;;;10.50;81.49;98229.41;4939189;29;20071;-64
2023/11/03 06:11:44;;;;;;;9.15;2.50;;;;;;;10.81;79.64;98229.03;4935771;29;20059;-64
2023/11/03 06:14:12;;;;;;;10.75;2.42;;;;;;;10.31;78.70;98238.59;4967902;28;20050;-64
2023/11/03 06:16:40;;;;;;;12.15;2.05;;;;;;;10.48;79.19;98231.75;4936521;29;20071;-64
2023/11/03 06:19:09;;;;;;;13.82;1.90;;;;;;;10.29;78.71;98245.66;4952805;28;20535;-64
2023/11/03 06:21:37;;;;;;;9.68;1.90;;;;;;;10.75;81.21;98236.03;4936262;29;20051;-64
2023/11/03 06:24:04;;;;;;;11.48;2.17;;;;;;;10.97;78.73;98243.38;4935684;29;20175;-63
2023/11/03 06:26:32;;;;;;;10.40;2.10;;;;;;;11.06;79.11;98246.63;4950642;28;20051;-64
2023/11/03 06:29:15;;;;;;;10.07;2.17;;;;;;;10.57;77.55;98249.56;4935911;29;20048;-66
2023/11/03 06:31:43;;;;;;;15.55;2.28;;;;;;;10.51;80.73;98250.28;4936070;29;20282;-62
2023/11/03 06:34:11;;;;;;;13.93;2.15;;;;;;;10.74;82.15;98249.00;4934767;29;20066;-63
2023/11/03 06:36:45;;;;;;;12.95;2.17;;;;;;;10.37;78.99;98250.88;4936082;29;20050;-62
2023/11/03 06:39:25;;;;;;;9.23;2.17;;;;;;;10.54;77.99;98244.81;4935125;29;20442;-64
2023/11/03 06:42:06;;;;;;;10.70;2.20;;;;;;;11.00;82.30;98251.69;4950699;29;20044;-63
2023/11/03 06:44:49;;;;;;;10.88;2.20;;;;;;;10.61;78.14;98255.13;4937214;28;20419;-62
2023/11/03 06:47:19;;;;;;;12.82;2.42;;;;;;;11.18;79.67;98257.41;4966155;28;20276;-64
2023/11/03 06:49:46;;;;;;;14.57;2.28;;;;;;;11.12;78.31;98258.91;4935442;29;20475;-63
2023/11/03 06:52:14;;;;;;;9.38;1.75;;;;;;;10.46;76.30;98265.13;4934983;29;20055;-64
2023/11/03 06:54:43;;;;;;;10.75;2.53;;;;;;;11.05;80.28;98264.34;4966062;28;20051;-64
2023/11/03 06:57:10;;;;;;;14.95;2.60;;;;;;;11.38;79.59;98265.09;4966086;28;20048;-63
2023/11/03 06:59:38;;;;;;;8.32;1.85;;;;;;;11.05;76.85;98270.63;4935323;29;20052;-64
2023/11/03 07:02:08;;;;;;;10.52;1.85;;;;;;;10.56;75.32;98282.97;4966251;28;20054;-66
2023/11/03 07:04:35;;;;;;;7.63;1.75;;;;;;;10.04;76.80;98289.25;4949877;29;20507;-64
2023/11/03 07:07:06;;;;;;;11.07;1.83;;;;;;;10.25;79.27;98280.56;4934268;29;20055;-64
2023/11/03 07:09:34;;;;;;;15.65;2.80;;;;;;;10.40;79.95;98285.91;4933685;29;20059;-65
2023/11/03 07:12:01;;;;;;;14.73;2.65;;;;;;;10.51;81.07;98286.06;4934349;28;20811;-68
2023/11/03 07:14:30;;;;;;;10.95;2.40;;;;;;;10.37;79.20;98289.41;4948987;29;20071;-65
2023/11/03 07:16:57;;;;;;;10.18;2.88;;;;;;;10.30;79.45;98288.50;4935258;29;20055;-67
2023/11/03 07:19:24;;;;;;;9.35;2.17;;;;;;;10.42;77.21;98286.31;4937749;29;20043;-64
2023/11/03 07:21:53;;;;;;;12.68;2.10;;;;;;;10.49;80.40;98288.38;4965693;28;20051;-63
2023/11/03 07:24:23;;;;;;;13.90;2.72;;;;;;;10.47;79.51;98298.97;4934658;29;20048;-65
2023/11/03 07:26:50;;;;;;;15.43;7.03;;;;;;;10.31;79.92;98296.38;4935308;29;20063;-64
2023/11/03 07:29:18;;;;;;;16.83;6.25;;;;;;;10.08;79.66;98310.16;4932427;29;20056;-64
2023/11/03 07:31:46;;;;;;;10.23;2.42;;;;;;;9.60;79.27;98310.09;4932412;29;20043;-64
2023/11/03 07:34:14;;;;;;;14.52;2.72;;;;;;;9.97;80.96;98308.38;4931765;29;20055;-64
2023/11/03 07:36:41;;;;;;;14.68;2.42;;;;;;;10.61;81.12;98310.97;4926884;29;20407;-63
2023/11/03 07:39:09;;;;;;;9.30;1.85;;;;;;;10.58;80.39;98306.22;4932101;29;20059;-62
2023/11/03 07:41:36;;;;;;;8.80;2.47;;;;;;;10.96;80.28;98305.94;4965743;28;20055;-63
2023/11/03 07:44:17;;;;;;;12.10;2.30;;;;;;;10.87;77.39;98304.63;4947723;28;20060;-65
2023/11/03 07:46:44;;;;;;;8.15;2.35;;;;;;;11.21;80.12;98309.78;4931777;29;20059;-63
2023/11/03 07:49:12;;;;;;;10.05;1.83;;;;;;;11.30;80.32;98307.53;4935673;29;20047;-63
2023/11/03 07:51:39;;;;;;;15.75;1.90;;;;;;;11.45;78.77;98303.00;4931897;29;20056;-63
2023/11/03 07:54:07;;;;;;;11.75;2.30;;;;;;;11.31;77.57;98311.09;4933182;29;20043;-63
2023/11/03 07:56:34;;;;;;;13.80;2.55;;;;;;;11.70;77.87;98303.28;4974010;28;20069;-64
2023/11/03 07:59:03;;;;;;;14.80;2.45;;;;;;;11.70;76.77;98306.03;4936780;29;20396;-64
2023/11/03 08:01:30;;;;;;;12.05;2.38;;;;;;;11.76;75.04;98302.53;4932582;29;20051;-62
2023/11/03 08:03:58;;;;;;;16.67;5.22;;;;;;;11.68;74.91;98309.16;4932839;29;20426;-63
2023/11/03 08:06:27;;;;;;;15.85;3.17;;;;;;;11.73;74.87;98306.06;4963450;28;20056;-64
2023/11/03 08:08:55;;;;;;;14.60;2.70;;;;;;;11.72;73.92;98311.94;4947667;28;20044;-64
2023/11/03 08:11:22;;;;;;;9.15;2.17;;;;;;;11.50;73.28;98310.09;4934856;29;20050;-64
2023/11/03 08:13:50;;;;;;;10.13;2.25;;;;;;;11.16;74.18;98314.84;4965049;28;20055;-64
2023/11/03 08:16:17;;;;;;;13.65;2.58;;;;;;;12.35;72.60;98323.53;4934563;29;20071;-63
2023/11/03 08:18:45;;;;;;;11.68;2.40;;;;;;;12.56;70.32;98325.66;4937301;29;20081;-64
2023/11/03 08:21:12;;;;;;;18.33;2.35;;;;;;;12.86;69.82;98323.47;4936189;28;20048;-63
2023/11/03 08:23:40;;;;;;;9.48;3.05;;;;;;;13.11;68.21;98325.22;4974154;28;20048;-64
2023/11/03 08:26:09;;;;;;;18.15;8.75;;;;;;;13.17;67.08;98329.19;4940505;29;20146;-64
2023/11/03 08:28:37;;;;;;;14.00;2.53;;;;;;;13.28;67.34;98326.47;4941218;28;20071;-65
2023/11/03 08:31:05;;;;;;;10.32;2.20;;;;;;;13.22;66.92;98330.78;4940722;29;20443;-65
2023/11/03 08:33:32;;;;;;;13.02;2.40;;;;;;;12.75;67.96;98331.72;4941833;29;20368;-64
2023/11/03 08:36:00;;;;;;;10.50;2.38;;;;;;;13.10;67.84;98336.66;4942486;28;20048;-64
2023/11/03 08:38:28;;;;;;;8.55;2.20;;;;;;;12.92;67.23;98339.31;4938261;29;20043;-63
2023/11/03 08:40:55;;;;;;;8.85;2.58;;;;;;;13.10;68.65;98342.19;4975031;28;20047;-64
2023/11/03 08:43:22;;;;;;;30.83;12.88;;;;;;;13.21;68.48;98337.50;4969392;28;20051;-63
2023/11/03 08:45:50;;;;;;;18.35;6.50;;;;;;;13.23;68.14;98341.47;4955626;28;20047;-63
2023/11/03 08:48:17;;;;;;;29.50;13.77;;;;;;;13.40;67.75;98338.00;4975795;28;20063;-62
2023/11/03 08:50:45;;;;;;;15.30;4.65;;;;;;;13.38;67.20;98334.81;4936890;29;20052;-61
2023/11/03 08:53:12;;;;;;;19.70;6.68;;;;;;;13.51;67.34;98346.31;4938523;29;20075;-61
2023/11/03 08:55:40;;;;;;;22.50;9.35;;;;;;;13.51;67.68;98335.25;4944557;29;20052;-61
2023/11/03 08:58:08;;;;;;;16.95;3.85;;;;;;;13.32;67.61;98343.84;4934132;29;20174;-61
2023/11/03 09:00:51;;;;;;;11.80;4.07;;;;;;;13.65;67.45;98348.34;4970055;28;20384;-61
2023/11/03 09:03:20;;;;;;;16.55;6.22;;;;;;;13.38;67.34;98345.88;4943110;29;20043;-60
2023/11/03 09:05:47;;;;;;;10.60;2.78;;;;;;;13.39;68.33;98346.66;4944896;29;20419;-61
2023/11/03 09:08:15;;;;;;;11.80;3.33;;;;;;;13.56;67.45;98334.88;4939792;29;20044;-63
2023/11/03 09:10:55;;;;;;;8.27;2.20;;;;;;;13.67;66.46;98338.44;4943160;29;20043;-63
2023/11/03 09:13:54;;;;;;;11.00;2.42;;;;;;;13.86;66.28;98345.63;4941502;28;20050;-65
2023/11/03 09:16:22;;;;;;;11.02;5.40;;;;;;;13.84;66.11;98337.72;4941211;29;20058;-66
2023/11/03 09:18:52;;;;;;;9.02;2.72;;;;;;;13.81;65.99;98334.94;4941468;29;20056;-62
2023/11/03 09:21:20;;;;;;;8.55;2.30;;;;;;;13.82;65.98;98334.56;4939587;29;20136;-63
2023/11/03 09:23:47;;;;;;;9.40;2.72;;;;;;;13.68;66.25;98339.25;4977872;28;20051;-62
2023/11/03 09:26:15;;;;;;;8.32;1.85;;;;;;;13.76;66.33;98340.84;4963477;28;20048;-63
2023/11/03 09:28:44;;;;;;;6.63;1.83;;;;;;;13.81;66.01;98351.56;4942910;29;20052;-63
2023/11/03 09:31:11;;;;;;;15.55;6.18;;;;;;;13.88;65.89;98348.78;4940622;29;20055;-62
2023/11/03 09:33:38;;;;;;;13.40;6.13;;;;;;;14.02;65.94;98351.56;4940861;29;20051;-63
2023/11/03 09:36:06;;;;;;;15.23;6.80;;;;;;;14.12;65.52;98362.66;4935427;29;20514;-63
2023/11/03 09:38:33;;;;;;;8.45;3.58;;;;;;;14.10;65.03;98350.41;4935985;29;20044;-63
2023/11/03 09:41:01;;;;;;;5.05;2.00;;;;;;;13.99;65.21;98355.94;4935292;29;20040;-62
2023/11/03 09:43:31;;;;;;;8.63;2.67;;;;;;;14.16;65.31;98369.00;4966483;28;20577;-62
2023/11/03 09:45:58;;;;;;;;;;;;;;;13.97;65.76;98363.81;4937949;29;20488;-63
2023/11/03 09:48:26;;;;;;;6.78;2.28;;;;;;;13.99;65.79;98364.22;4952100;28;19930;-61
2023/11/03 09:50:55;;;;;;;10.65;2.50;;;;;;;13.99;65.53;98367.00;4954250;28;20480;-62
2023/11/03 09:53:25;;;;;;;7.63;2.25;;;;;;;14.26;64.80;98373.00;4933742;29;20063;-63
2023/11/03 09:55:55;;;;;;;6.85;1.92;;;;;;;14.07;64.57;98368.56;4930820;29;20070;-62
2023/11/03 09:58:22;;;;;;;9.35;1.50;;;;;;;14.14;65.53;98376.13;4941104;29;20051;-63
2023/11/03 10:00:50;;;;;;;7.15;1.65;;;;;;;13.91;64.68;98373.72;4931222;29;20507;-64
2023/11/03 10:03:17;;;;;;;18.67;6.60;;;;;;;14.28;64.81;98370.59;4947075;29;20052;-70
2023/11/03 10:05:45;;;;;;;10.75;6.32;;;;;;;14.42;64.59;98371.41;4935284;28;20071;-62
2023/11/03 10:08:14;;;;;;;9.05;3.03;;;;;;;14.47;63.91;98373.00;4933385;29;20742;-63
2023/11/03 10:10:41;;;;;;;8.45;1.77;;;;;;;13.96;65.27;98380.81;4938059;29;20078;-63
2023/11/03 10:13:12;;;;;;;6.57;2.00;;;;;;;14.28;65.10;98384.44;4941997;29;20052;-63
2023/11/03 10:15:40;;;;;;;7.50;2.05;;;;;;;14.33;64.58;98384.09;4939379;28;20055;-62
2023/11/03 10:18:09;;;;;;;7.78;2.20;;;;;;;14.51;64.72;98379.31;4935810;29;20067;-62
2023/11/03 10:20:40;;;;;;;6.45;1.85;;;;;;;14.71;64.01;98374.97;4935294;29;20056;-63
2023/11/03 10:23:07;;;;;;;7.72;1.83;;;;;;;14.43;63.84;98380.53;4932627;29;20040;-62
2023/11/03 10:25:37;;;;;;;6.18;1.52;;;;;;;14.30;64.10;98376.53;4964010;28;20055;-62
2023/11/03 10:28:07;;;;;;;9.40;1.90;;;;;;;14.61;64.18;98365.47;4935042;29;20543;-62
2023/11/03 10:30:37;;;;;;;;;;;;;;;14.65;63.64;98365.47;4965788;28;20056;-62
2023/11/03 10:33:05;;;;;;;7.38;1.80;;;;;;;14.71;63.40;98374.97;4968065;28;19945;-62
2023/11/03 10:35:33;;;;;;;7.70;2.22;;;;;;;14.76;63.03;98377.34;4939131;29;20059;-63
2023/11/03 10:38:02;;;;;;;8.88;2.15;;;;;;;14.73;63.34;98372.59;4936768;29;20050;-64
2023/11/03 10:40:30;;;;;;;10.20;2.87;;;;;;;14.65;62.76;98369.03;4949601;28;20059;-62
2023/11/03 10:43:00;;;;;;;8.93;3.42;;;;;;;14.73;63.40;98369.03;4937973;29;20291;-64
2023/11/03 10:45:30;;;;;;;;;;;;;;;14.89;63.16;98366.63;4934614;29;20078;-64
2023/11/03 10:48:34;;;;;;;6.97;2.17;;;;;;;14.93;62.53;98367.41;4938831;29;20299;-63
2023/11/03 10:51:09;;;;;;;17.52;3.10;;;;;;;14.86;62.58;98371.00;4943034;29;20055;-63
2023/11/03 10:53:46;;;;;;;8.65;4.72;;;;;;;14.84;61.98;98376.13;4962628;28;20058;-63
2023/11/03 10:56:21;;;;;;;10.45;5.18;;;;;;;14.69;62.15;98374.56;4944444;29;20051;-63
2023/11/03 10:59:09;;;;;;;9.45;3.35;;;;;;;14.80;62.28;98372.59;4945793;28;20066;-63
2023/11/03 11:01:59;;;;;;;5.93;2.40;;;;;;;14.65;61.90;98368.25;4965395;28;20055;-63
2023/11/03 11:04:50;;;;;;;10.05;1.77;;;;;;;14.87;62.14;98367.00;4938046;29;20051;-63
2023/11/03 11:07:19;;;;;;;7.07;1.77;;;;;;;14.90;62.13;98363.47;4962159;28;20050;-63
2023/11/03 11:09:47;;;;;;;4.53;1.38;;;;;;;15.01;61.70;98360.69;4960090;28;20495;-62
2023/11/03 11:12:14;;;;;;;7.45;1.75;;;;;;;14.85;62.54;98350.00;4940189;29;20044;-63
2023/11/03 11:14:42;;;;;;;3.95;1.27;;;;;;;14.91;62.61;98350.38;4929292;29;20056;-66
2023/11/03 11:17:36;;;;;;;3.33;1.30;;;;;;;15.15;62.27;98352.31;4979873;28;20530;-64
2023/11/03 11:20:12;;;;;;;6.03;1.80;;;;;;;14.53;64.25;98361.13;4964766;28;20419;-64
2023/11/03 11:22:40;;;;;;;5.95;1.70;;;;;;;14.92;62.82;98369.41;4953242;28;20055;-60
2023/11/03 11:25:10;;;;;;;5.10;1.40;;;;;;;14.98;62.54;98362.25;4934856;29;20055;-66
2023/11/03 11:27:40;;;;;;;6.57;1.50;;;;;;;15.22;61.54;98366.16;4933190;29;20870;-64
2023/11/03 11:30:14;;;;;;;6.85;2.38;;;;;;;15.21;62.39;98365.38;4949308;28;20392;-61
2023/11/03 11:32:50;;;;;;;9.23;4.40;;;;;;;15.32;62.59;98360.59;4934117;29;20043;-64
2023/11/03 11:35:19;;;;;;;15.15;6.88;;;;;;;15.19;61.57;98366.94;4960262;28;20052;-66
2023/11/03 11:37:47;;;;;;;10.43;4.50;;;;;;;15.13;62.43;98366.56;4937159;29;20047;-63
2023/11/03 11:40:14;;;;;;;8.95;3.30;;;;;;;15.10;62.25;98361.81;4934810;29;20055;-62